Time;durP1;ratioP1;P1;durP2;ratioP2;P2;SDS_P1;SDS_P2;PMS_P1;PMS_P2;Temp;Humidity;BMP_temperature;BMP_pressure;BME280_temperature;BME280_humidity;BME280_pressure;Samples;Min_cycle;Max_cycle;Signal;HPM_P1;HPM_P2
2022/06/07 00:00:32;;;;;;;4.45;0.70;;;;;;;12.68;100.00;155707.75;4937075;29;20046;-83
2022/06/07 00:02:58;;;;;;;1.02;0.60;;;;;;;12.59;100.00;155685.97;4963661;28;20453;-83
2022/06/07 00:05:24;;;;;;;3.25;0.68;;;;;;;12.60;100.00;155688.50;4927853;29;20513;-81
2022/06/07 00:07:50;;;;;;;2.38;0.60;;;;;;;12.53;100.00;155670.56;4917217;28;20506;-83
2022/06/07 00:10:16;;;;;;;2.17;0.60;;;;;;;12.48;100.00;155658.97;4951727;28;20046;-81
2022/06/07 00:12:42;;;;;;;1.35;0.65;;;;;;;12.46;100.00;155655.09;4939852;28;20043;-81
2022/06/07 00:15:09;;;;;;;16.20;1.15;;;;;;;12.46;100.00;155653.84;4952451;28;20058;-83
2022/06/07 00:17:35;;;;;;;3.03;0.68;;;;;;;12.46;100.00;155653.84;4937512;28;20134;-81
2022/06/07 00:20:01;;;;;;;1.48;0.68;;;;;;;12.31;100.00;155615.31;4952280;29;20489;-83
2022/06/07 00:22:26;;;;;;;7.22;1.05;;;;;;;12.46;100.00;155653.84;4928382;29;20031;-82
2022/06/07 00:24:53;;;;;;;1.60;0.70;;;;;;;12.44;100.00;155649.97;4937905;28;20038;-83
2022/06/07 00:27:19;;;;;;;3.00;0.70;;;;;;;12.51;100.00;155665.38;4923354;29;20366;-79
2022/06/07 00:29:46;;;;;;;1.58;0.80;;;;;;;12.60;100.00;155689.81;4930599;28;20063;-83
2022/06/07 00:32:13;;;;;;;0.90;0.75;;;;;;;12.68;100.00;155709.09;4961410;28;20039;-83
2022/06/07 00:34:39;;;;;;;2.35;0.80;;;;;;;12.70;100.00;155714.22;4943387;28;20114;-83
2022/06/07 00:37:05;;;;;;;6.40;0.85;;;;;;;12.64;100.00;155698.81;4939570;29;20498;-81
2022/06/07 00:39:31;;;;;;;2.20;0.73;;;;;;;12.64;100.00;155698.81;4941267;29;20178;-83
2022/06/07 00:41:57;;;;;;;1.15;0.80;;;;;;;12.66;100.00;155703.94;4946037;29;20028;-83
2022/06/07 00:44:25;;;;;;;0.85;0.85;;;;;;;12.69;100.00;155711.63;4938218;29;20035;-82
2022/06/07 00:46:55;;;;;;;1.13;0.80;;;;;;;12.66;100.00;155705.22;4942704;28;20050;-82
2022/06/07 00:49:22;;;;;;;1.05;0.75;;;;;;;12.74;100.00;155724.47;4950010;29;20110;-82
2022/06/07 00:51:49;;;;;;;1.25;0.75;;;;;;;12.74;100.00;155724.47;4941811;28;20434;-83
2022/06/07 00:54:27;;;;;;;1.42;0.85;;;;;;;12.65;100.00;155701.34;4930624;29;20031;-83
2022/06/07 00:56:59;;;;;;;2.50;0.80;;;;;;;12.62;100.00;155693.63;4944858;29;20058;-83
2022/06/07 00:59:30;;;;;;;1.38;0.90;;;;;;;12.59;100.00;155685.97;4944540;29;20506;-84
2022/06/07 01:01:57;;;;;;;1.88;1.00;;;;;;;12.54;100.00;155673.09;4941237;28;20034;-84
2022/06/07 01:04:23;;;;;;;1.63;0.85;;;;;;;12.43;100.00;155646.09;4933776;29;20047;-83
2022/06/07 01:12:21;;;;;;;1.85;0.90;;;;;;;12.54;100.00;155673.09;4956351;28;20530;-84
2022/06/07 01:14:46;;;;;;;1.08;0.80;;;;;;;12.42;100.00;155644.84;4937345;29;20054;-82
2022/06/07 01:17:12;;;;;;;2.25;1.13;;;;;;;12.44;100.00;155649.97;4938618;29;20035;-83
2022/06/07 01:19:39;;;;;;;3.75;0.90;;;;;;;12.40;100.00;155639.72;4926575;28;20795;-83
2022/06/07 01:22:05;;;;;;;2.92;0.90;;;;;;;12.37;100.00;155631.97;4947326;28;20560;-81
2022/06/07 01:24:31;;;;;;;1.60;0.95;;;;;;;12.35;100.00;155625.56;4913297;29;20102;-83
2022/06/07 01:27:03;;;;;;;0.73;0.70;;;;;;;12.38;100.00;155634.56;4942305;28;20089;-83
2022/06/07 01:29:29;;;;;;;1.67;1.20;;;;;;;12.38;100.00;155633.28;4944939;29;20035;-83
2022/06/07 01:31:55;;;;;;;1.15;0.85;;;;;;;12.45;100.00;155651.25;4920292;28;20517;-82
2022/06/07 01:34:24;;;;;;;0.73;0.73;;;;;;;12.41;100.00;155640.97;4934692;29;20040;-84
2022/06/07 01:36:49;;;;;;;0.95;0.90;;;;;;;12.38;100.00;155634.56;4953884;28;20054;-85
2022/06/07 01:41:59;;;;;;;1.65;0.77;;;;;;;12.42;100.00;155643.56;4963369;28;20031;-85
2022/06/07 01:44:39;;;;;;;1.58;1.00;;;;;;;12.45;100.00;155652.56;4943749;28;20047;-83
2022/06/07 01:47:09;;;;;;;0.80;0.80;;;;;;;12.40;100.00;155639.72;4940444;29;20514;-83
2022/06/07 01:49:38;;;;;;;2.25;0.82;;;;;;;12.47;100.00;155656.44;4946897;28;20043;-83
2022/06/07 01:52:05;;;;;;;1.73;1.00;;;;;;;12.54;100.00;155673.09;4935358;29;20089;-83
2022/06/07 01:54:34;;;;;;;0.85;0.85;;;;;;;12.48;100.00;155657.69;4950773;28;20039;-83
2022/06/07 01:57:00;;;;;;;0.73;0.73;;;;;;;12.51;100.00;155665.38;4951106;28;20046;-81
2022/06/07 01:59:26;;;;;;;1.00;0.90;;;;;;;12.55;100.00;155676.97;4941381;29;20043;-80
2022/06/07 02:01:52;;;;;;;1.17;0.80;;;;;;;12.64;100.00;155698.81;4953224;28;20043;-80
2022/06/07 02:04:18;;;;;;;0.90;0.90;;;;;;;12.54;100.00;155673.09;4938124;29;20488;-81
2022/06/07 02:06:43;;;;;;;0.80;0.80;;;;;;;12.57;100.00;155682.09;4940742;28;20059;-81
2022/06/07 02:09:12;;;;;;;1.60;0.80;;;;;;;12.46;100.00;155653.84;4941010;29;20409;-81
2022/06/07 02:11:38;;;;;;;1.95;0.82;;;;;;;12.48;100.00;155657.69;4935440;28;20046;-82
2022/06/07 02:14:07;;;;;;;1.08;0.80;;;;;;;12.53;100.00;155671.81;4943548;29;20123;-81
2022/06/07 02:16:33;;;;;;;1.10;0.90;;;;;;;12.52;100.00;155667.97;4934307;29;20397;-78
2022/06/07 02:18:59;;;;;;;1.25;0.90;;;;;;;12.53;100.00;155671.81;4920627;29;20055;-81
2022/06/07 02:21:28;;;;;;;1.42;0.98;;;;;;;12.53;100.00;155670.56;4928948;29;20055;-81
2022/06/07 02:23:56;;;;;;;0.93;0.80;;;;;;;12.44;100.00;155649.97;4947675;28;20529;-81
2022/06/07 02:26:25;;;;;;;1.77;1.02;;;;;;;12.53;100.00;155670.56;4940061;29;20047;-80
2022/06/07 02:28:56;;;;;;;0.90;0.90;;;;;;;12.54;100.00;155673.09;4937616;29;20057;-80
2022/06/07 02:31:25;;;;;;;0.80;0.80;;;;;;;12.37;100.00;155630.72;4944636;29;20576;-81
2022/06/07 02:33:52;;;;;;;1.60;1.10;;;;;;;12.39;100.00;155637.13;4937216;28;20126;-80
2022/06/07 02:36:18;;;;;;;2.13;1.00;;;;;;;12.42;100.00;155644.84;4947768;28;20022;-81
2022/06/07 02:38:44;;;;;;;0.98;0.98;;;;;;;12.50;100.00;155662.81;4935968;28;20390;-82
2022/06/07 02:41:14;;;;;;;0.98;0.80;;;;;;;12.50;100.00;155662.81;4954418;28;20023;-82
2022/06/07 02:43:40;;;;;;;1.85;0.90;;;;;;;12.44;100.00;155649.97;4919136;28;20078;-83
2022/06/07 02:46:06;;;;;;;0.90;0.90;;;;;;;12.53;100.00;155670.56;4936191;29;20138;-82
2022/06/07 02:48:33;;;;;;;3.53;1.08;;;;;;;12.47;100.00;155656.44;4931802;28;20039;-80
2022/06/07 02:50:59;;;;;;;2.00;1.08;;;;;;;12.43;100.00;155647.44;4955130;28;20035;-80
2022/06/07 02:53:25;;;;;;;0.70;0.70;;;;;;;12.33;100.00;155621.72;4939262;28;20038;-83
2022/06/07 02:55:51;;;;;;;0.80;0.80;;;;;;;12.46;100.00;155655.09;4930712;28;20730;-81
2022/06/07 02:58:24;;;;;;;1.17;0.90;;;;;;;12.57;100.00;155680.81;4926398;29;20111;-80
2022/06/07 03:00:49;;;;;;;0.88;0.82;;;;;;;12.50;100.00;155664.09;4923482;28;20039;-81
2022/06/07 03:03:18;;;;;;;1.10;0.60;;;;;;;12.53;100.00;155670.56;4950586;28;20038;-82
2022/06/07 03:05:44;;;;;;;1.05;0.90;;;;;;;12.52;100.00;155669.25;4935681;28;20039;-81
2022/06/07 03:08:10;;;;;;;2.30;0.90;;;;;;;12.57;100.00;155682.09;4917489;29;20043;-81
2022/06/07 03:10:37;;;;;;;0.77;0.68;;;;;;;12.52;100.00;155667.97;4943483;28;20042;-81
2022/06/07 03:13:04;;;;;;;3.33;1.00;;;;;;;12.49;100.00;155661.56;4936734;28;20035;-80
2022/06/07 03:15:30;;;;;;;0.85;0.80;;;;;;;12.50;100.00;155662.81;4955940;28;20083;-81
2022/06/07 03:17:59;;;;;;;1.10;0.75;;;;;;;12.51;100.00;155665.38;4940112;28;20030;-82
2022/06/07 03:20:33;;;;;;;2.88;0.70;;;;;;;12.54;100.00;155674.38;4936279;28;20179;-78
2022/06/07 03:22:59;;;;;;;1.85;0.90;;;;;;;12.54;100.00;155673.09;4962529;28;20059;-80
2022/06/07 03:25:26;;;;;;;0.85;0.68;;;;;;;12.48;100.00;155658.97;4931579;29;20865;-81
2022/06/07 03:27:59;;;;;;;0.73;0.73;;;;;;;12.56;100.00;155678.22;4958398;28;20462;-79
2022/06/07 03:30:25;;;;;;;0.55;0.55;;;;;;;12.45;100.00;155652.56;4943203;29;20074;-83
2022/06/07 03:32:52;;;;;;;0.73;0.60;;;;;;;12.51;100.00;155665.38;4952503;28;20697;-80
2022/06/07 03:35:19;;;;;;;2.90;0.65;;;;;;;12.50;100.00;155664.09;4951353;29;20126;-81
2022/06/07 03:37:44;;;;;;;1.13;0.65;;;;;;;12.41;100.00;155642.28;4941409;28;20104;-81
2022/06/07 03:40:14;;;;;;;0.55;0.55;;;;;;;12.59;100.00;155687.22;4923867;29;20039;-83
2022/06/07 03:42:41;;;;;;;0.70;0.52;;;;;;;12.61;100.00;155692.34;4920938;28;20073;-75
2022/06/07 03:45:08;;;;;;;1.85;0.57;;;;;;;12.66;100.00;155703.94;4951862;28;20038;-81
2022/06/07 03:47:37;;;;;;;1.63;0.70;;;;;;;12.73;100.00;155720.63;4942342;28;20410;-81
2022/06/07 03:50:04;;;;;;;0.77;0.70;;;;;;;12.70;100.00;155712.94;4945675;28;20458;-81
2022/06/07 03:52:30;;;;;;;0.82;0.65;;;;;;;12.64;100.00;155700.09;4944767;29;20089;-82
2022/06/07 03:54:56;;;;;;;0.63;0.63;;;;;;;12.63;100.00;155697.50;4942942;29;20031;-80
2022/06/07 03:57:25;;;;;;;0.88;0.63;;;;;;;12.62;100.00;155694.94;4962360;28;20508;-82
2022/06/07 03:59:55;;;;;;;0.60;0.60;;;;;;;12.54;100.00;155673.09;4937968;29;20445;-82
2022/06/07 04:02:21;;;;;;;0.55;0.55;;;;;;;12.59;100.00;155687.22;4942042;29;20043;-79
2022/06/07 04:04:47;;;;;;;0.85;0.60;;;;;;;12.59;100.00;155685.97;4939819;28;20498;-82
2022/06/07 04:10:01;;;;;;;1.88;0.82;;;;;;;12.76;100.00;155729.63;4958435;28;20074;-82
2022/06/07 04:12:40;;;;;;;0.88;0.70;;;;;;;12.79;100.00;155736.03;4924433;28;20126;-81
2022/06/07 04:15:06;;;;;;;1.17;0.70;;;;;;;12.74;100.00;155724.47;4948870;29;20039;-81
2022/06/07 04:17:32;;;;;;;0.63;0.63;;;;;;;12.75;100.00;155727.06;4942104;29;20046;-80
2022/06/07 04:20:21;;;;;;;0.82;0.80;;;;;;;12.79;100.00;155736.03;4920766;29;20040;-78
2022/06/07 04:22:47;;;;;;;0.80;0.70;;;;;;;12.87;100.00;155755.34;4949469;28;20031;-78
2022/06/07 04:25:13;;;;;;;0.90;0.90;;;;;;;12.89;100.00;155761.75;4933187;29;20099;-83
2022/06/07 04:27:41;;;;;;;2.15;1.02;;;;;;;12.88;100.00;155757.88;4953400;28;20130;-80
2022/06/07 04:30:07;;;;;;;1.70;0.82;;;;;;;12.81;100.00;155741.22;4948024;29;20051;-83
2022/06/07 04:32:35;;;;;;;2.33;0.98;;;;;;;12.85;100.00;155752.75;4946632;28;20035;-81
2022/06/07 04:35:06;;;;;;;2.42;1.38;;;;;;;12.91;100.00;155766.88;4965215;28;20098;-82
2022/06/07 04:37:31;;;;;;;1.23;1.13;;;;;;;12.92;100.00;155768.16;4914790;29;20043;-83
2022/06/07 04:40:02;;;;;;;1.27;1.00;;;;;;;12.96;100.00;155779.75;4951659;28;20034;-81
2022/06/07 04:42:28;;;;;;;1.20;1.10;;;;;;;12.88;100.00;155759.16;4930449;29;20045;-81
2022/06/07 04:45:02;;;;;;;2.28;1.20;;;;;;;12.88;100.00;155757.88;4954486;28;20055;-83
2022/06/07 04:47:46;;;;;;;2.65;1.48;;;;;;;12.92;100.00;155768.16;4926026;28;20458;-83
2022/06/07 04:50:16;;;;;;;3.45;1.33;;;;;;;12.94;100.00;155773.28;4929796;29;20572;-83
2022/06/07 04:52:44;;;;;;;5.30;1.60;;;;;;;12.93;100.00;155770.75;4942896;28;20106;-81
2022/06/07 04:55:10;;;;;;;4.28;1.60;;;;;;;12.97;100.00;155781.00;4926436;29;20044;-81
2022/06/07 04:57:37;;;;;;;2.80;1.70;;;;;;;13.00;100.00;155788.75;4946824;28;20046;-81
2022/06/07 05:00:06;;;;;;;2.03;1.92;;;;;;;13.04;100.00;155799.00;4949583;29;20094;-80
2022/06/07 05:02:35;;;;;;;2.70;1.40;;;;;;;13.00;100.00;155790.00;4960051;28;20131;-81
2022/06/07 05:05:04;;;;;;;3.40;1.88;;;;;;;13.07;100.00;155805.41;4948182;28;20031;-82
2022/06/07 05:07:29;;;;;;;1.90;1.73;;;;;;;13.02;100.00;155793.88;4946522;29;20042;-80
2022/06/07 05:10:07;;;;;;;1.70;1.60;;;;;;;12.98;100.00;155784.88;4955228;28;20043;-80
2022/06/07 05:12:38;;;;;;;2.28;1.83;;;;;;;13.03;100.00;155796.41;4944162;29;20063;-81
2022/06/07 05:15:05;;;;;;;1.85;1.75;;;;;;;13.03;100.00;155796.41;4938415;29;20039;-81
2022/06/07 05:17:40;;;;;;;2.95;1.80;;;;;;;12.99;100.00;155787.41;4961195;28;20043;-82
2022/06/07 05:20:07;;;;;;;3.10;2.17;;;;;;;12.94;100.00;155773.28;4955158;28;20038;-82
2022/06/07 05:22:33;;;;;;;3.55;2.08;;;;;;;12.93;100.00;155772.00;4932670;29;20035;-81
2022/06/07 05:25:01;;;;;;;2.35;2.20;;;;;;;12.93;100.00;155770.75;4935343;29;20455;-81
2022/06/07 05:27:39;;;;;;;2.43;2.20;;;;;;;13.01;100.00;155792.56;4927116;28;20039;-80
2022/06/07 05:30:12;;;;;;;2.50;2.30;;;;;;;13.04;100.00;155799.00;4942511;29;20035;-82
2022/06/07 05:32:43;;;;;;;9.23;3.72;;;;;;;13.07;100.00;155805.41;4941125;28;20035;-79
2022/06/07 05:35:14;;;;;;;3.92;2.70;;;;;;;13.11;100.00;155817.00;4947546;28;20118;-81
2022/06/07 05:37:44;;;;;;;3.42;2.80;;;;;;;13.03;100.00;155797.75;4926011;28;20040;-81
2022/06/07 05:40:18;;;;;;;3.30;2.92;;;;;;;13.16;100.00;155828.56;4944458;29;20122;-81
2022/06/07 05:42:45;;;;;;;5.80;3.42;;;;;;;13.10;100.00;155813.16;4936567;28;20517;-82
2022/06/07 05:45:14;;;;;;;5.35;3.47;;;;;;;13.13;100.00;155820.81;4928459;28;20035;-82
2022/06/07 05:47:41;;;;;;;7.05;3.60;;;;;;;13.06;100.00;155804.16;4920402;28;20528;-82
2022/06/07 05:50:09;;;;;;;4.70;3.70;;;;;;;13.12;100.00;155818.28;4926186;29;20449;-82
2022/06/07 05:52:40;;;;;;;4.80;4.10;;;;;;;13.09;100.00;155810.56;4920550;28;20086;-84
2022/06/07 05:55:08;;;;;;;5.32;3.90;;;;;;;13.14;100.00;155824.69;4943654;29;20039;-83
2022/06/07 05:57:35;;;;;;;5.45;4.55;;;;;;;13.09;100.00;155811.88;4944687;28;20039;-82
2022/06/07 06:00:04;;;;;;;6.65;4.38;;;;;;;13.05;100.00;155801.56;4929947;29;20046;-81
2022/06/07 06:02:38;;;;;;;5.32;4.07;;;;;;;13.07;100.00;155806.69;4955109;28;20058;-82
2022/06/07 06:05:06;;;;;;;6.20;4.40;;;;;;;13.09;100.00;155810.56;4948772;29;20035;-80
2022/06/07 06:07:33;;;;;;;5.32;4.32;;;;;;;13.14;100.00;155824.69;4910377;28;20035;-78
2022/06/07 06:12:49;;;;;;;6.07;5.05;;;;;;;13.24;100.00;155849.09;4943081;28;20035;-77
2022/06/07 06:15:18;;;;;;;10.73;6.05;;;;;;;13.22;100.00;155845.28;4933386;29;20050;-82
2022/06/07 06:17:45;;;;;;;6.43;5.43;;;;;;;13.22;100.00;155843.97;4937980;29;20069;-83
2022/06/07 06:20:20;;;;;;;8.30;6.03;;;;;;;13.29;100.00;155860.69;4930540;29;20109;-79
2022/06/07 06:22:49;;;;;;;9.30;6.28;;;;;;;13.20;100.00;155838.81;4939966;28;20039;-81
2022/06/07 06:25:15;;;;;;;8.55;6.35;;;;;;;13.16;100.00;155829.81;4943105;28;20039;-82
2022/06/07 06:27:41;;;;;;;8.00;6.07;;;;;;;13.25;100.00;155851.69;4940306;28;20394;-81
2022/06/07 06:30:10;;;;;;;11.85;7.25;;;;;;;13.31;100.00;155865.88;4930007;28;20035;-81
2022/06/07 06:32:44;;;;;;;8.95;6.47;;;;;;;13.46;100.00;155903.16;4934145;28;20147;-78
2022/06/07 06:35:11;;;;;;;8.35;6.45;;;;;;;13.50;100.00;155914.69;4941907;29;20043;-81
2022/06/07 06:37:36;;;;;;;8.45;6.50;;;;;;;13.48;100.00;155908.28;4931954;28;20403;-82
2022/06/07 06:40:07;;;;;;;11.65;6.85;;;;;;;13.52;100.00;155918.56;4972356;28;20038;-83
2022/06/07 06:42:40;;;;;;;10.60;7.28;;;;;;;13.59;100.00;155936.56;4947385;28;20039;-84
2022/06/07 06:45:42;;;;;;;9.73;6.90;;;;;;;13.56;100.00;155928.84;4953490;28;20047;-82
2022/06/07 06:48:15;;;;;;;10.98;7.05;;;;;;;13.55;100.00;155927.56;4951310;29;20038;-81
2022/06/07 06:50:42;;;;;;;12.85;7.22;;;;;;;13.53;100.00;155921.16;4919170;28;20035;-82
2022/06/07 06:53:08;;;;;;;12.43;7.22;;;;;;;13.68;100.00;155959.72;4935370;29;20046;-82
2022/06/07 06:55:35;;;;;;;13.20;6.97;;;;;;;13.67;100.00;155955.84;4947808;28;20039;-82
2022/06/07 06:58:03;;;;;;;11.93;6.85;;;;;;;13.64;100.00;155949.44;4939247;28;20456;-82
2022/06/07 07:00:30;;;;;;;11.00;6.65;;;;;;;13.68;100.00;155958.44;4929174;29;20036;-84
2022/06/07 07:02:55;;;;;;;9.27;6.18;;;;;;;13.69;100.00;155962.25;4960045;28;20702;-83
2022/06/07 07:05:23;;;;;;;9.45;5.97;;;;;;;13.72;100.00;155968.72;4941255;29;20043;-83
2022/06/07 07:07:56;;;;;;;13.45;7.15;;;;;;;13.74;100.00;155973.84;4951061;28;20062;-82
2022/06/07 07:10:25;;;;;;;12.05;6.85;;;;;;;13.79;100.00;155987.97;4963044;28;20106;-82
2022/06/07 07:12:51;;;;;;;10.60;6.15;;;;;;;13.98;100.00;156035.56;4946886;29;20031;-82
2022/06/07 07:15:20;;;;;;;10.73;5.55;;;;;;;14.17;100.00;156083.13;4945538;29;20040;-84
2022/06/07 07:17:52;;;;;;;7.93;5.60;;;;;;;14.28;100.00;156108.81;4928583;28;20062;-82
2022/06/07 07:20:18;;;;;;;10.15;5.90;;;;;;;14.43;100.00;156147.44;4924674;29;20383;-82
2022/06/07 07:22:48;;;;;;;11.13;5.18;;;;;;;14.57;100.00;156182.19;4938129;29;20063;-76
2022/06/07 07:25:14;;;;;;;6.25;4.75;;;;;;;14.70;100.00;156214.34;4936672;29;20491;-82
2022/06/07 07:27:42;;;;;;;8.10;4.95;;;;;;;14.75;100.00;156227.22;4944872;28;20047;-83
2022/06/07 07:30:09;;;;;;;8.82;4.13;;;;;;;14.85;100.00;156251.66;4948597;29;20046;-80
2022/06/07 07:32:37;;;;;;;7.15;4.65;;;;;;;14.82;100.00;156245.19;4914227;28;20042;-80
2022/06/07 07:35:03;;;;;;;9.75;4.72;;;;;;;14.90;100.00;156264.47;4947082;29;20101;-84
2022/06/07 07:37:36;;;;;;;11.27;4.32;;;;;;;14.88;100.00;156259.34;4918907;28;20094;-82
2022/06/07 07:40:09;;;;;;;5.30;3.42;;;;;;;14.90;100.00;156264.47;4954110;29;20039;-80
2022/06/07 07:42:35;;;;;;;5.70;3.78;;;;;;;14.82;100.00;156243.91;4933891;28;20045;-79
2022/06/07 07:45:07;;;;;;;8.93;3.78;;;;;;;14.75;100.00;156228.50;4936961;29;20062;-79
2022/06/07 07:47:34;;;;;;;8.20;4.20;;;;;;;14.83;100.00;156246.50;4936911;28;20081;-78
2022/06/07 07:49:59;;;;;;;9.23;4.13;;;;;;;14.73;100.00;156222.03;4953249;29;20091;-80
2022/06/07 07:52:25;;;;;;;7.38;3.85;;;;;;;14.70;100.00;156215.63;4937152;29;20062;-82
2022/06/07 07:54:58;;;;;;;5.28;3.35;;;;;;;14.57;100.00;156183.47;4937774;29;20055;-82
2022/06/07 07:57:23;;;;;;;8.50;3.70;;;;;;;14.64;100.00;156198.94;4942530;29;20110;-81
2022/06/07 07:59:49;;;;;;;11.10;4.40;;;;;;;14.70;100.00;156215.63;4966350;28;20088;-79
2022/06/07 08:02:20;;;;;;;8.45;3.53;;;;;;;14.80;100.00;156240.06;4956677;28;20094;-79
2022/06/07 08:04:51;;;;;;;8.32;3.00;;;;;;;14.83;100.00;156247.78;4931966;28;20043;-82
2022/06/07 08:07:17;;;;;;;5.28;3.00;;;;;;;14.82;100.00;156243.91;4945329;29;20114;-80
2022/06/07 08:09:44;;;;;;;9.00;3.75;;;;;;;14.79;100.00;156238.78;4946331;28;20039;-79
2022/06/07 08:12:09;;;;;;;3.75;2.33;;;;;;;14.81;100.00;156241.38;4937975;29;20119;-79
2022/06/07 08:14:36;;;;;;;5.43;2.50;;;;;;;14.87;100.00;156256.78;4923058;28;20035;-80
2022/06/07 08:17:03;;;;;;;4.97;2.33;;;;;;;14.90;100.00;156264.47;4957053;28;20050;-82
2022/06/07 08:19:30;;;;;;;5.45;2.60;;;;;;;14.85;100.00;156252.94;4957948;28;20043;-83
2022/06/07 08:21:56;;;;;;;5.40;2.78;;;;;;;14.95;100.00;156278.63;4939973;28;20035;-80
2022/06/07 08:24:22;;;;;;;5.40;2.30;;;;;;;14.98;100.00;156285.09;4951018;29;20075;-78
2022/06/07 08:26:48;;;;;;;3.47;2.22;;;;;;;15.04;100.00;156300.53;4920219;28;20057;-80
2022/06/07 08:29:16;;;;;;;6.40;2.60;;;;;;;15.04;100.00;156300.53;4949460;29;20074;-79
2022/06/07 08:31:42;;;;;;;6.25;2.60;;;;;;;15.18;100.00;156336.56;4938438;28;20078;-81
2022/06/07 08:39:39;;;;;;;5.78;2.50;;;;;;;15.42;100.00;156394.44;4944972;28;20043;-82
2022/06/07 08:42:29;;;;;;;4.50;2.55;;;;;;;15.62;100.00;156445.94;4940533;29;20043;-80
2022/06/07 08:45:03;;;;;;;5.65;2.60;;;;;;;15.79;100.00;156488.44;4929904;28;20034;-80
2022/06/07 08:47:55;;;;;;;4.60;2.60;;;;;;;15.89;100.00;156512.88;4926446;29;20102;-80
2022/06/07 08:50:29;;;;;;;7.30;2.97;;;;;;;16.08;100.00;156560.50;4929465;29;20051;-78
2022/06/07 08:53:03;;;;;;;6.07;2.70;;;;;;;16.15;100.00;156578.53;4927041;28;20032;-81
2022/06/07 08:55:36;;;;;;;3.58;2.70;;;;;;;16.21;99.78;156593.97;4938730;29;20031;-80
2022/06/07 08:58:15;;;;;;;4.32;2.53;;;;;;;16.19;99.52;156587.56;4942626;29;20039;-80
2022/06/07 09:00:45;;;;;;;6.70;3.20;;;;;;;16.20;97.96;156590.09;4937636;28;20301;-78
2022/06/07 09:03:36;;;;;;;6.68;3.00;;;;;;;16.36;98.65;156631.31;4935620;29;20107;-80
2022/06/07 09:06:03;;;;;;;3.97;2.58;;;;;;;16.46;100.00;156657.09;4939958;29;20047;-81
2022/06/07 09:08:45;;;;;;;3.40;2.58;;;;;;;16.39;97.85;156639.06;4936637;29;20574;-81
2022/06/07 09:14:04;;;;;;;8.57;2.60;;;;;;;16.19;100.00;156588.84;4944585;29;20638;-83
2022/06/07 09:16:40;;;;;;;4.72;2.35;;;;;;;16.33;100.00;156623.56;4939794;29;20051;-85
2022/06/07 09:19:21;;;;;;;3.40;2.42;;;;;;;16.23;99.09;156597.84;4921727;29;20121;-79
2022/06/07 09:21:49;;;;;;;4.85;2.50;;;;;;;16.09;98.67;156564.38;4938866;28;20042;-81
2022/06/07 09:24:28;;;;;;;6.05;2.45;;;;;;;16.04;99.28;156551.50;4914370;29;20031;-80
2022/06/07 09:27:05;;;;;;;2.92;2.30;;;;;;;15.98;100.00;156536.06;4916274;28;20034;-81
2022/06/07 09:29:35;;;;;;;5.82;2.28;;;;;;;15.91;100.00;156518.03;4938539;29;20043;-81
2022/06/07 09:32:01;;;;;;;4.47;2.15;;;;;;;15.81;100.00;156492.31;4918148;29;20126;-82
2022/06/07 09:34:28;;;;;;;4.90;2.80;;;;;;;15.65;99.24;156452.34;4938175;29;20545;-81
2022/06/07 09:36:59;;;;;;;7.43;2.95;;;;;;;15.60;100.00;156440.78;4921764;29;20043;-80
2022/06/07 09:39:39;;;;;;;4.78;2.50;;;;;;;15.60;100.00;156439.50;4948574;28;20061;-83
2022/06/07 09:42:18;;;;;;;4.45;2.45;;;;;;;15.61;100.00;156443.34;4939805;29;20059;-82
2022/06/07 09:45:08;;;;;;;5.20;2.72;;;;;;;15.67;100.00;156457.47;4923856;28;20043;-80
2022/06/07 09:47:33;;;;;;;5.20;3.00;;;;;;;15.71;100.00;156467.81;4944644;28;20071;-80
2022/06/07 09:50:11;;;;;;;3.92;2.60;;;;;;;15.76;99.48;156480.72;4947937;29;20027;-80
2022/06/07 09:52:40;;;;;;;3.60;2.90;;;;;;;16.00;98.80;156539.94;4933990;28;20103;-79
2022/06/07 09:55:34;;;;;;;8.85;3.28;;;;;;;16.05;94.81;156552.78;4947063;29;20039;-83
2022/06/07 09:58:41;;;;;;;5.88;3.28;;;;;;;16.13;96.96;156573.41;4929660;28;20398;-81
2022/06/07 10:01:18;;;;;;;5.25;3.15;;;;;;;16.30;94.97;156615.88;4943222;29;20523;-82
2022/06/07 10:04:05;;;;;;;5.90;3.08;;;;;;;16.54;94.39;156676.41;4945998;28;20383;-80
2022/06/07 10:06:55;;;;;;;7.82;2.90;;;;;;;17.59;92.11;156939.16;4931928;29;20031;-83
2022/06/07 10:10:08;;;;;;;6.40;2.83;;;;;;;18.34;85.79;157128.66;4939549;29;20046;-81
2022/06/07 10:12:43;;;;;;;4.47;3.00;;;;;;;19.14;88.75;157329.84;4936832;28;20040;-81
2022/06/07 10:15:38;;;;;;;8.52;3.22;;;;;;;19.39;80.83;157391.72;4924923;29;20038;-83
2022/06/07 10:18:38;;;;;;;5.13;3.13;;;;;;;19.13;77.93;157327.22;4918047;29;20086;-81
2022/06/07 10:21:15;;;;;;;5.63;3.63;;;;;;;19.17;81.17;157337.53;4920157;29;20035;-81
2022/06/07 10:23:59;;;;;;;4.78;3.35;;;;;;;19.44;78.95;157405.91;4937962;28;20047;-82
2022/06/07 10:26:42;;;;;;;6.03;3.28;;;;;;;19.67;80.51;157461.38;4939284;29;20418;-82
2022/06/07 10:29:43;;;;;;;8.73;2.78;;;;;;;19.77;78.53;157488.50;4945437;28;20509;-80
2022/06/07 10:32:50;;;;;;;5.30;3.35;;;;;;;19.15;75.69;157331.13;4942377;28;20144;-80
2022/06/07 10:35:43;;;;;;;4.53;3.00;;;;;;;18.96;77.52;157283.41;4931346;29;20039;-80
2022/06/07 10:38:31;;;;;;;4.82;2.90;;;;;;;18.88;82.00;157264.06;4906773;28;20054;-82
2022/06/07 10:41:07;;;;;;;7.15;2.92;;;;;;;19.06;81.19;157309.19;4943153;29;20047;-81
2022/06/07 10:43:51;;;;;;;5.72;3.00;;;;;;;19.03;80.89;157302.75;4927013;28;20039;-80
2022/06/07 10:46:20;;;;;;;6.13;2.97;;;;;;;19.05;75.25;157306.63;4936803;28;20405;-80
2022/06/07 10:49:17;;;;;;;4.05;3.10;;;;;;;18.94;75.55;157279.53;4936264;28;20038;-83
2022/06/07 10:54:56;;;;;;;5.43;3.28;;;;;;;18.64;78.74;157204.69;4946158;29;20039;-79
2022/06/07 10:57:34;;;;;;;4.75;3.72;;;;;;;18.39;78.22;157141.56;4941487;29;20047;-78
2022/06/07 11:00:14;;;;;;;5.15;3.47;;;;;;;18.35;84.04;157129.97;4921205;29;20039;-85
2022/06/07 11:02:53;;;;;;;8.43;3.60;;;;;;;18.05;82.09;157055.22;4937867;28;20499;-82
2022/06/07 11:11:12;;;;;;;5.65;3.85;;;;;;;17.40;89.49;156891.50;4956566;28;20073;-78
2022/06/07 11:13:49;;;;;;;9.48;3.90;;;;;;;17.56;85.25;156931.47;4942917;28;20044;-82
2022/06/07 11:16:38;;;;;;;6.32;3.40;;;;;;;17.67;89.15;156959.81;4952014;28;20075;-85
2022/06/07 11:19:04;;;;;;;4.80;3.20;;;;;;;17.66;94.44;156958.50;4916633;29;20043;-82
2022/06/07 11:21:34;;;;;;;7.47;3.42;;;;;;;17.52;89.15;156922.44;4924850;29;20039;-82
2022/06/07 11:24:02;;;;;;;7.78;3.90;;;;;;;17.38;84.55;156887.63;4923713;29;20146;-81
2022/06/07 11:26:55;;;;;;;4.07;3.53;;;;;;;17.20;86.08;156841.31;4927371;29;20055;-82
2022/06/07 11:29:31;;;;;;;;;;;;;;;17.01;85.59;156794.91;4919202;29;20043;-80
2022/06/07 11:31:58;;;;;;;4.72;4.25;;;;;;;16.84;88.61;156752.44;4925757;28;19925;-83
2022/06/07 11:34:31;;;;;;;7.07;4.30;;;;;;;16.68;89.54;156711.16;4940272;29;20142;-82
2022/06/07 11:37:15;;;;;;;7.22;3.83;;;;;;;16.53;93.16;156675.09;4928910;28;20043;-82
2022/06/07 11:39:41;;;;;;;6.18;4.47;;;;;;;16.38;95.51;156635.19;4929903;28;20054;-80
2022/06/07 11:42:06;;;;;;;7.05;4.30;;;;;;;16.38;98.19;156636.47;4933488;28;20047;-81
2022/06/07 11:44:41;;;;;;;8.88;4.70;;;;;;;16.51;93.37;156669.94;4934406;29;20130;-81
2022/06/07 11:47:06;;;;;;;6.75;3.97;;;;;;;16.60;95.27;156691.84;4944522;29;20035;-82
2022/06/07 11:49:45;;;;;;;6.45;4.45;;;;;;;16.77;94.69;156733.06;4953805;28;20042;-77
2022/06/07 11:52:33;;;;;;;6.13;4.22;;;;;;;16.93;93.80;156774.28;4931455;29;20044;-82
2022/06/07 11:55:14;;;;;;;6.43;4.40;;;;;;;16.97;94.24;156784.63;4901358;29;20050;-82
2022/06/07 11:57:52;;;;;;;8.23;4.00;;;;;;;17.01;95.43;156793.59;4941219;28;20043;-82
2022/06/07 12:00:18;;;;;;;5.30;4.80;;;;;;;17.04;95.32;156801.34;4922711;29;20733;-84
2022/06/07 12:03:06;;;;;;;8.52;4.70;;;;;;;16.89;90.36;156764.00;4925206;29;20114;-82
2022/06/07 12:05:41;;;;;;;6.72;4.60;;;;;;;16.69;94.97;156715.03;4929806;29;20043;-81
2022/06/07 12:08:18;;;;;;;5.45;4.13;;;;;;;16.48;94.25;156660.91;4908774;28;20046;-82